Time;durP1;ratioP1;P1;durP2;ratioP2;P2;SDS_P1;SDS_P2;PMS_P1;PMS_P2;Temp;Humidity;BMP_temperature;BMP_pressure;BME280_temperature;BME280_humidity;BME280_pressure;Samples;Min_cycle;Max_cycle;Signal;HPM_P1;HPM_P2
2021/11/11 00:00:26;;;;;;;20.13;8.80;;;-0.10;99.90;;;-2.15;100.00;102080.91;2566700;30;137579;-38
2021/11/11 00:02:55;;;;;;;14.65;8.18;;;-0.10;99.90;;;-2.16;100.00;102088.09;2568794;30;138634;-38
2021/11/11 00:05:24;;;;;;;14.13;7.93;;;-0.10;99.90;;;-2.14;100.00;102098.69;2567389;30;138284;-38
2021/11/11 00:07:52;;;;;;;15.60;8.07;;;-0.10;99.90;;;-2.14;100.00;102101.34;2568946;30;138417;-38
2021/11/11 00:10:22;;;;;;;14.77;7.70;;;-0.10;99.90;;;-2.15;100.00;102103.19;2566668;30;137889;-38
2021/11/11 00:12:51;;;;;;;16.35;8.77;;;-0.20;99.90;;;-2.13;100.00;102106.63;2565391;30;138542;-38
2021/11/11 00:15:21;;;;;;;13.93;7.40;;;-0.20;99.90;;;-2.11;100.00;102103.84;2568041;30;137129;-38
2021/11/11 00:17:50;;;;;;;13.77;8.05;;;-0.10;99.90;;;-2.09;100.00;102101.94;2568151;30;139884;-38
2021/11/11 00:20:24;;;;;;;14.98;7.65;;;-0.10;99.90;;;-2.11;100.00;102098.50;2568333;30;137610;-38
2021/11/11 00:22:54;;;;;;;14.43;8.02;;;-0.10;99.90;;;-2.10;100.00;102089.53;2568002;30;138366;-38
2021/11/11 00:25:24;;;;;;;16.67;8.57;;;-0.10;99.90;;;-2.06;100.00;102081.19;2567459;30;137079;-38
2021/11/11 00:27:52;;;;;;;14.40;8.45;;;-0.10;99.90;;;-2.08;100.00;102074.25;2568241;30;137409;-38
2021/11/11 00:30:21;;;;;;;12.45;7.90;;;-0.10;99.90;;;-2.09;100.00;102076.03;2566765;30;137418;-38
2021/11/11 00:32:52;;;;;;;15.30;8.07;;;-0.10;99.90;;;-2.08;100.00;102069.72;2567736;30;138313;-38
2021/11/11 00:35:25;;;;;;;14.63;7.90;;;-0.10;99.90;;;-2.11;100.00;102069.09;2567295;30;138630;-38
2021/11/11 00:37:56;;;;;;;14.13;7.85;;;-0.10;99.90;;;-2.12;100.00;102065.53;2567495;30;139157;-38
2021/11/11 00:40:27;;;;;;;11.98;7.47;;;-0.10;99.90;;;-2.13;100.00;102054.94;2568199;30;138863;-38
2021/11/11 00:43:00;;;;;;;14.18;7.50;;;-0.10;99.90;;;-2.21;100.00;102053.63;2568428;30;139061;-38
2021/11/11 00:45:29;;;;;;;13.82;7.70;;;-0.20;99.90;;;-2.23;100.00;102054.69;2568244;30;137598;-38
2021/11/11 00:47:57;;;;;;;14.93;7.40;;;-0.20;99.90;;;-2.25;100.00;102044.06;2567602;30;138392;-38
2021/11/11 00:50:29;;;;;;;18.77;8.68;;;-0.20;99.90;;;-2.22;100.00;102051.06;2566935;30;137740;-38
2021/11/11 00:52:57;;;;;;;16.15;7.82;;;-0.20;99.90;;;-2.23;100.00;102052.00;2567159;30;140043;-38
2021/11/11 00:55:24;;;;;;;15.45;7.72;;;-0.20;99.90;;;-2.24;100.00;102056.50;2567272;30;137441;-38
2021/11/11 00:58:01;;;;;;;14.43;8.02;;;-0.20;99.90;;;-2.27;100.00;102058.50;2568012;30;140591;-38
2021/11/11 01:00:36;;;;;;;13.02;7.43;;;-0.30;99.90;;;-2.34;100.00;102044.69;2568245;30;138455;-38
2021/11/11 01:03:06;;;;;;;16.27;8.02;;;-0.30;99.90;;;-2.34;100.00;102055.38;2567263;30;138308;-38
2021/11/11 01:05:34;;;;;;;15.05;7.15;;;-0.30;99.90;;;-2.37;100.00;102044.88;2565008;30;140034;-38
2021/11/11 01:08:10;;;;;;;13.40;7.25;;;-0.30;99.90;;;-2.35;100.00;102040.28;2567617;30;139548;-38
2021/11/11 01:10:38;;;;;;;13.23;7.40;;;-0.30;99.90;;;-2.38;100.00;102041.31;2568178;30;137684;-37
2021/11/11 01:13:08;;;;;;;13.23;7.65;;;-0.40;99.90;;;-2.35;100.00;102041.13;2567453;30;138980;-37
2021/11/11 01:15:35;;;;;;;13.85;7.65;;;-0.30;99.90;;;-2.35;100.00;102034.94;2567305;30;138197;-38
2021/11/11 01:18:05;;;;;;;14.07;8.20;;;-0.40;99.90;;;-2.36;100.00;102035.91;2568040;30;137921;-38
2021/11/11 01:20:37;;;;;;;15.05;7.45;;;-0.30;99.90;;;-2.35;100.00;102041.13;2567593;30;137577;-37
2021/11/11 01:23:04;;;;;;;12.52;7.50;;;-0.30;99.90;;;-2.35;100.00;102042.97;2568546;30;138563;-38
2021/11/11 01:25:37;;;;;;;12.68;7.78;;;-0.30;99.90;;;-2.37;100.00;102047.56;2566717;30;136909;-38
2021/11/11 01:28:10;;;;;;;14.65;7.45;;;-0.30;99.90;;;-2.38;100.00;102037.81;2569222;30;138618;-38
2021/11/11 01:30:42;;;;;;;15.02;7.75;;;-0.40;99.90;;;-2.41;100.00;102033.50;2566545;30;139870;-38
2021/11/11 01:33:23;;;;;;;13.35;7.25;;;-0.40;99.90;;;-2.50;100.00;102013.56;2565664;30;139388;-38
2021/11/11 01:35:54;;;;;;;12.85;7.75;;;-0.40;99.90;;;-2.44;100.00;102030.16;2567407;30;137521;-38
2021/11/11 01:38:30;;;;;;;16.00;7.80;;;-0.40;99.90;;;-2.47;100.00;102026.72;2566010;30;139453;-38
2021/11/11 01:41:03;;;;;;;14.18;8.10;;;-0.40;99.90;;;-2.50;100.00;102018.06;2566815;30;137026;-38
2021/11/11 01:43:34;;;;;;;18.63;7.68;;;-0.40;99.90;;;-2.51;100.00;102009.19;2566866;30;139722;-38
2021/11/11 01:46:09;;;;;;;12.60;7.05;;;-0.50;99.90;;;-2.57;100.00;101996.22;2567777;30;139407;-38
2021/11/11 01:48:38;;;;;;;12.48;7.47;;;-0.50;99.90;;;-2.53;100.00;102005.75;2567410;30;139659;-38
2021/11/11 01:51:11;;;;;;;13.70;7.22;;;-0.50;99.90;;;-2.50;100.00;101996.69;2566997;30;138923;-38
2021/11/11 01:54:00;;;;;;;13.75;7.78;;;-0.50;99.90;;;-2.48;100.00;102003.63;2567275;30;140526;-38
2021/11/11 01:56:28;;;;;;;13.32;7.28;;;-0.50;99.90;;;-2.52;100.00;102003.91;2567102;30;138729;-38
2021/11/11 01:59:11;;;;;;;14.07;8.10;;;-0.50;99.90;;;-2.54;100.00;102012.03;2568256;30;139484;-38
2021/11/11 02:01:42;;;;;;;15.32;7.90;;;-0.50;99.90;;;-2.50;100.00;102015.41;2567449;30;138493;-38
2021/11/11 02:04:11;;;;;;;13.57;7.63;;;-0.50;99.90;;;-2.50;100.00;102018.06;2567727;30;139595;-38
2021/11/11 02:06:48;;;;;;;14.65;7.35;;;-0.50;99.90;;;-2.52;100.00;102019.94;2566317;30;138855;-38
2021/11/11 02:09:22;;;;;;;14.10;8.05;;;-0.50;99.90;;;-2.55;100.00;102023.69;2568568;30;137217;-38
2021/11/11 02:12:00;;;;;;;14.68;7.97;;;-0.50;99.90;;;-2.57;100.00;102024.72;2566698;30;136763;-38
2021/11/11 02:14:27;;;;;;;15.13;8.00;;;-0.50;99.90;;;-2.60;100.00;102020.47;2565736;30;140337;-38
2021/11/11 02:16:56;;;;;;;14.63;7.57;;;-0.60;99.90;;;-2.65;100.00;102017.22;2567556;30;137668;-38
2021/11/11 02:20:23;;;;;;;14.23;6.88;;;-0.60;99.90;;;-2.69;100.00;102023.69;2564695;30;140497;-38
2021/11/11 02:23:00;;;;;;;13.45;7.10;;;-0.60;99.90;;;-2.68;100.00;102025.41;2567031;30;137465;-38
2021/11/11 02:25:48;;;;;;;13.30;7.68;;;-0.60;99.90;;;-2.68;100.00;102023.59;2567036;30;137136;-38
2021/11/11 02:28:20;;;;;;;14.70;7.60;;;-0.60;99.90;;;-2.69;100.00;102007.66;2566688;30;139842;-38
2021/11/11 02:30:53;;;;;;;14.65;8.65;;;-0.60;99.90;;;-2.71;100.00;102015.78;2566245;30;140041;-38
2021/11/11 02:33:32;;;;;;;13.77;7.38;;;-0.70;99.90;;;-2.74;100.00;102015.97;2565787;30;137447;-38
2021/11/11 02:36:00;;;;;;;19.67;9.15;;;-0.70;99.90;;;-2.73;100.00;102014.16;2567280;30;139865;-38
2021/11/11 02:38:30;;;;;;;15.75;8.00;;;-0.70;99.90;;;-2.72;100.00;102015.88;2568325;30;136895;-38
2021/11/11 02:41:00;;;;;;;;;;;-0.70;99.90;;;-2.71;100.00;102009.56;2570178;30;139307;-38
2021/11/11 02:43:28;;;;;;;12.60;7.35;;;-0.70;99.90;;;-2.69;100.00;102013.00;2567882;30;137084;-38
2021/11/11 02:46:00;;;;;;;14.65;7.68;;;-0.70;99.90;;;-2.71;100.00;102006.91;2568198;30;138413;-38
2021/11/11 02:48:30;;;;;;;13.30;7.55;;;-0.70;99.90;;;-2.76;100.00;102005.38;2568922;30;139518;-38
2021/11/11 02:50:59;;;;;;;13.65;7.10;;;-0.70;99.90;;;-2.79;100.00;102016.25;2568001;30;138300;-38
2021/11/11 02:53:26;;;;;;;15.00;7.47;;;-0.70;99.90;;;-2.73;100.00;102017.69;2565885;30;137369;-38
2021/11/11 02:55:54;;;;;;;12.95;6.93;;;-0.70;99.90;;;-2.69;100.00;102023.69;2568716;30;138398;-38
2021/11/11 02:58:24;;;;;;;13.05;7.00;;;-0.70;99.90;;;-2.71;100.00;102023.81;2568394;30;139520;-38
2021/11/11 03:01:00;;;;;;;13.45;7.00;;;-0.70;99.90;;;-2.71;100.00;102029.16;2567719;30;140580;-38
2021/11/11 03:03:29;;;;;;;12.20;7.25;;;-0.70;99.90;;;-2.70;100.00;102021.97;2565613;30;139291;-38
2021/11/11 03:05:58;;;;;;;13.13;7.20;;;-0.70;99.90;;;-2.71;100.00;102025.59;2567750;30;139771;-38
2021/11/11 03:08:27;;;;;;;15.63;7.43;;;-0.70;99.90;;;-2.73;100.00;102023.03;2567552;30;137845;-38
2021/11/11 03:10:57;;;;;;;13.23;7.32;;;-0.70;99.90;;;-2.79;100.00;102024.28;2567803;30;140657;-38
2021/11/11 03:13:36;;;;;;;10.93;6.38;;;-0.70;99.90;;;-2.81;100.00;102015.50;2574583;30;139850;-41
2021/11/11 03:16:08;;;;;;;12.20;6.95;;;-0.70;99.90;;;-2.89;100.00;102009.78;2566400;30;139379;-39
2021/11/11 03:18:35;;;;;;;;;;;-0.80;99.90;;;-2.80;100.00;102027.91;2570369;30;138218;-39
2021/11/11 03:21:03;;;;;;;14.13;7.50;;;-0.80;99.90;;;-2.80;100.00;102017.22;2569996;30;138330;-39
2021/11/11 03:23:31;;;;;;;12.80;6.97;;;-0.80;99.90;;;-2.82;100.00;102004.91;2569671;30;137691;-39
2021/11/11 03:26:02;;;;;;;13.63;7.68;;;-0.80;99.90;;;-2.87;100.00;102015.00;2569177;30;139409;-39
2021/11/11 03:28:36;;;;;;;13.63;7.78;;;-0.80;99.90;;;-2.89;100.00;102015.13;2570257;30;139738;-39
2021/11/11 03:31:05;;;;;;;15.00;7.35;;;-0.80;99.90;;;-2.90;100.00;102016.94;2568284;30;138845;-39
2021/11/11 03:33:33;;;;;;;13.00;7.25;;;-0.80;99.90;;;-2.88;100.00;102016.84;2567862;30;139098;-39
2021/11/11 03:36:00;;;;;;;15.50;7.65;;;-0.80;99.90;;;-2.90;100.00;102019.59;2571561;30;138306;-39
2021/11/11 03:38:30;;;;;;;;;;;-0.90;99.90;;;-2.90;100.00;102026.75;2569905;30;139089;-39
2021/11/11 03:40:59;;;;;;;14.38;7.05;;;-0.90;99.90;;;-2.92;100.00;102029.50;2569423;30;139402;-39
2021/11/11 03:43:34;;;;;;;12.30;6.72;;;-0.90;99.90;;;-2.89;100.00;102026.66;2568701;30;139404;-39
2021/11/11 03:46:12;;;;;;;13.50;7.20;;;-0.90;99.90;;;-2.90;100.00;102034.78;2569024;30;138274;-39
2021/11/11 03:48:46;;;;;;;13.85;7.25;;;-0.80;99.90;;;-2.93;100.00;102033.16;2570606;30;138152;-39
2021/11/11 03:51:15;;;;;;;13.93;7.43;;;-0.90;99.90;;;-2.95;100.00;102028.84;2568858;30;139502;-39
2021/11/11 03:53:45;;;;;;;13.52;7.18;;;-0.90;99.90;;;-2.95;100.00;102028.84;2570277;30;139260;-39
2021/11/11 03:56:13;;;;;;;15.35;8.38;;;-0.90;99.90;;;-2.98;100.00;102029.91;2569632;30;141100;-39
2021/11/11 03:58:43;;;;;;;;;;;-0.90;99.90;;;-3.01;100.00;102023.88;2571232;30;137774;-39
2021/11/11 04:01:12;;;;;;;15.45;7.75;;;-0.90;99.90;;;-3.05;100.00;102028.53;2568262;30;138376;-40
2021/11/11 04:03:42;;;;;;;15.77;8.05;;;-1.00;99.90;;;-2.99;100.00;102035.31;2570571;30;139181;-40
2021/11/11 04:06:09;;;;;;;13.60;7.25;;;-0.90;99.90;;;-3.01;100.00;102035.44;2570974;30;138454;-39
2021/11/11 04:08:37;;;;;;;15.02;8.02;;;-0.90;99.90;;;-3.01;100.00;102042.56;2569591;30;138716;-39
2021/11/11 04:11:05;;;;;;;15.20;7.60;;;-1.00;99.90;;;-3.06;100.00;102029.50;2570365;30;140504;-39
2021/11/11 04:13:36;;;;;;;15.25;7.80;;;-1.00;99.90;;;-3.03;100.00;102038.19;2569994;30;139072;-39
2021/11/11 04:16:05;;;;;;;15.20;7.53;;;-1.00;99.90;;;-3.03;100.00;102037.34;2568798;30;139968;-39
2021/11/11 04:18:35;;;;;;;15.48;7.80;;;-1.00;99.90;;;-3.00;100.00;102031.81;2567929;30;138797;-39
2021/11/11 04:21:04;;;;;;;14.35;7.20;;;-1.00;99.90;;;-3.03;100.00;102035.50;2570805;30;138244;-39
2021/11/11 04:23:32;;;;;;;14.15;7.72;;;-1.00;99.90;;;-3.04;100.00;102043.63;2568709;30;137552;-39
2021/11/11 04:28:38;;;;;;;17.05;7.90;;;-1.00;99.90;;;-3.08;100.00;102040.28;2569142;30;139756;-39
2021/11/11 04:31:16;;;;;;;13.95;8.20;;;-1.00;99.90;;;-3.08;100.00;102040.28;2569083;30;139491;-39
2021/11/11 04:33:45;;;;;;;16.95;7.40;;;-1.00;99.90;;;-3.08;100.00;102039.41;2571227;30;137347;-39
2021/11/11 04:45:01;;;;;;;13.55;7.40;;;-1.10;99.90;;;-3.18;100.00;102047.16;2569322;30;139064;-40
2021/11/11 05:01:43;;;;;;;13.70;7.40;;;-1.10;99.90;;;-3.20;100.00;102057.03;2567336;30;138684;-39
2021/11/11 05:04:09;;;;;;;13.30;7.45;;;-1.10;99.90;;;-3.19;100.00;102054.28;2569600;30;139514;-39
2021/11/11 05:06:37;;;;;;;;;;;-1.10;99.90;;;-3.21;100.00;102055.31;2567223;30;137119;-39
2021/11/11 05:09:05;;;;;;;13.90;6.65;;;-1.10;99.90;;;-3.21;100.00;102066.00;2570724;30;139929;-40
2021/11/11 05:11:35;;;;;;;12.75;7.32;;;-1.20;99.90;;;-3.23;100.00;102063.44;2570265;30;137786;-39
2021/11/11 05:14:04;;;;;;;12.35;7.15;;;-1.20;99.90;;;-3.25;100.00;102060.00;2569487;30;139622;-37
2021/11/11 05:16:32;;;;;;;16.23;7.75;;;-1.20;99.90;;;-3.22;100.00;102056.25;2571638;30;136818;-39
2021/11/11 05:19:00;;;;;;;16.15;7.72;;;-1.20;99.90;;;-3.23;100.00;102066.09;2569801;30;139308;-40
2021/11/11 05:21:30;;;;;;;14.20;7.22;;;-1.20;99.90;;;-3.23;100.00;102070.56;2570157;30;137511;-39
2021/11/11 05:23:58;;;;;;;12.35;6.85;;;-1.20;99.90;;;-3.23;100.00;102068.75;2568281;30;139832;-39
2021/11/11 05:26:27;;;;;;;11.95;6.85;;;-1.20;99.90;;;-3.22;100.00;102064.28;2570603;30;137495;-40
2021/11/11 05:28:58;;;;;;;14.75;7.38;;;-1.20;99.90;;;-3.22;100.00;102067.81;2569459;30;140670;-40
2021/11/11 05:31:27;;;;;;;14.75;7.03;;;-1.20;99.90;;;-3.22;100.00;102061.59;2568555;30;139795;-39
2021/11/11 05:33:55;;;;;;;14.68;7.00;;;-1.20;99.90;;;-3.22;100.00;102053.59;2569965;30;140612;-39
2021/11/11 05:36:23;;;;;;;13.55;7.47;;;-1.20;99.90;;;-3.22;100.00;102054.47;2568542;30;138258;-39
2021/11/11 05:38:51;;;;;;;12.05;6.45;;;-1.20;99.90;;;-3.22;100.00;102053.59;2566492;30;140844;-40
2021/11/11 05:41:19;;;;;;;15.02;7.28;;;-1.20;99.90;;;-3.24;100.00;102060.84;2570671;30;138126;-39
2021/11/11 05:43:50;;;;;;;14.60;7.47;;;-1.20;99.90;;;-3.25;100.00;102062.66;2569350;30;138457;-39
2021/11/11 05:46:20;;;;;;;12.40;7.82;;;-1.20;99.90;;;-3.27;100.00;102067.25;2568822;30;139586;-39
2021/11/11 05:48:49;;;;;;;14.05;7.97;;;-1.20;99.90;;;-3.28;100.00;102064.66;2570800;30;140739;-39
2021/11/11 05:51:16;;;;;;;14.75;8.00;;;-1.20;99.90;;;-3.27;100.00;102064.56;2569221;30;139681;-40
2021/11/11 05:53:44;;;;;;;14.68;7.47;;;-1.20;99.90;;;-3.27;100.00;102071.69;2569619;30;139246;-39
2021/11/11 05:56:11;;;;;;;12.68;6.90;;;-1.20;99.90;;;-3.24;100.00;102063.50;2569326;30;139097;-39
2021/11/11 05:58:39;;;;;;;15.15;7.88;;;-1.20;99.90;;;-3.21;100.00;102066.88;2570787;30;138320;-39
2021/11/11 06:01:07;;;;;;;12.73;7.38;;;-1.20;99.90;;;-3.24;100.00;102060.84;2569814;30;138640;-40
2021/11/11 06:03:46;;;;;;;13.52;7.53;;;-1.20;99.90;;;-3.21;100.00;102071.31;2565937;30;140227;-40
2021/11/11 06:06:14;;;;;;;15.38;8.45;;;-1.20;99.90;;;-3.25;100.00;102073.34;2568610;30;138179;-39
2021/11/11 06:08:41;;;;;;;;;;;-1.20;99.90;;;-3.25;100.00;102078.69;2568935;30;138430;-39
2021/11/11 06:11:11;;;;;;;15.75;7.03;;;-1.20;99.90;;;-3.25;100.00;102075.13;2571175;30;137921;-39
2021/11/11 06:13:38;;;;;;;11.68;6.28;;;-1.20;99.90;;;-3.24;100.00;102077.72;2569808;30;138794;-39
2021/11/11 06:16:06;;;;;;;13.23;8.00;;;-1.20;99.90;;;-3.26;100.00;102078.75;2571687;30;137389;-40
2021/11/11 06:18:34;;;;;;;13.65;7.63;;;-1.20;99.90;;;-3.27;100.00;102085.06;2569712;30;139222;-39
2021/11/11 06:21:02;;;;;;;14.55;7.22;;;-1.20;99.90;;;-3.27;100.00;102088.59;2571319;30;138726;-40
2021/11/11 06:23:35;;;;;;;13.85;7.22;;;-1.20;99.90;;;-3.27;100.00;102091.25;2570652;30;139555;-40
2021/11/11 06:26:03;;;;;;;15.32;8.57;;;-1.20;99.90;;;-3.25;100.00;102097.38;2570002;30;138894;-40
2021/11/11 06:28:39;;;;;;;13.60;7.70;;;-1.20;99.90;;;-3.24;100.00;102092.88;2570692;30;140647;-39
2021/11/11 06:31:08;;;;;;;11.80;6.82;;;-1.20;99.90;;;-3.27;100.00;102098.41;2567298;30;140260;-40
2021/11/11 06:33:38;;;;;;;12.52;7.35;;;-1.20;99.90;;;-3.29;100.00;102102.97;2569008;30;137338;-39
2021/11/11 06:36:05;;;;;;;14.55;7.45;;;-1.30;99.90;;;-3.28;100.00;102112.69;2571528;30;138724;-39
2021/11/11 06:38:33;;;;;;;15.98;7.90;;;-1.20;99.90;;;-3.28;100.00;102110.03;2570239;30;139221;-39
2021/11/11 06:41:01;;;;;;;13.50;7.63;;;-1.20;99.90;;;-3.29;100.00;102111.84;2569226;30;137584;-41
2021/11/11 06:43:29;;;;;;;13.68;7.00;;;-1.30;99.90;;;-3.29;100.00;102109.19;2569634;30;138177;-39
2021/11/11 06:45:56;;;;;;;13.75;7.50;;;-1.20;99.90;;;-3.30;100.00;102120.81;2569640;30;137734;-41
2021/11/11 06:48:24;;;;;;;14.43;7.95;;;-1.30;99.90;;;-3.32;100.00;102112.00;2572482;30;137327;-39
2021/11/11 06:50:52;;;;;;;14.27;7.63;;;-1.20;99.90;;;-3.33;100.00;102120.97;2569543;30;137738;-39
2021/11/11 06:53:20;;;;;;;;;;;-1.30;99.90;;;-3.34;100.00;102122.78;2569880;30;138546;-40
2021/11/11 06:55:48;;;;;;;15.15;8.15;;;-1.30;99.90;;;-3.27;100.00;102119.75;2571538;30;137915;-39
2021/11/11 06:58:21;;;;;;;15.45;7.57;;;-1.20;99.90;;;-3.27;100.00;102125.97;2571429;30;137507;-40
2021/11/11 07:00:59;;;;;;;15.73;8.15;;;-1.30;99.90;;;-3.25;100.00;102128.53;2567511;30;139789;-39
2021/11/11 07:03:29;;;;;;;15.43;7.70;;;-1.20;99.90;;;-3.22;100.00;102131.88;2569957;30;139089;-39
2021/11/11 07:05:58;;;;;;;14.73;7.63;;;-1.20;99.90;;;-3.15;100.00;102124.38;2569850;30;139267;-40
2021/11/11 07:08:26;;;;;;;14.00;7.25;;;-1.20;99.90;;;-3.11;100.00;102131.25;2571580;30;138211;-40
2021/11/11 07:10:55;;;;;;;14.13;7.75;;;-1.10;99.90;;;-3.06;100.00;102136.31;2569946;30;137014;-40
2021/11/11 07:13:24;;;;;;;13.23;8.07;;;-1.10;99.90;;;-3.03;100.00;102137.00;2571630;30;137570;-39
2021/11/11 07:15:51;;;;;;;17.35;8.38;;;-1.10;99.90;;;-3.00;100.00;102140.44;2569102;30;139990;-39
2021/11/11 07:18:19;;;;;;;14.05;7.57;;;-1.00;99.90;;;-2.96;100.00;102142.84;2571217;30;137327;-40
2021/11/11 07:20:49;;;;;;;16.20;8.55;;;-1.00;99.90;;;-2.93;100.00;102141.78;2566585;30;138071;-40
2021/11/11 07:23:20;;;;;;;15.15;7.97;;;-1.00;99.90;;;-2.90;100.00;102141.63;2570234;30;138399;-39
2021/11/11 07:25:50;;;;;;;12.45;7.57;;;-1.00;99.90;;;-2.86;100.00;102142.28;2569747;30;137394;-39
2021/11/11 07:28:19;;;;;;;16.40;7.60;;;-0.90;99.90;;;-2.83;100.00;102150.09;2569058;30;139003;-39
2021/11/11 07:30:48;;;;;;;14.45;7.97;;;-0.90;99.90;;;-2.80;100.00;102160.59;2570204;30;137689;-39
2021/11/11 07:33:16;;;;;;;16.02;9.02;;;-0.90;99.90;;;-2.77;100.00;102161.28;2571212;30;138188;-40
2021/11/11 07:35:45;;;;;;;15.77;8.07;;;-0.80;99.90;;;-2.70;100.00;102166.25;2570926;30;137498;-40
2021/11/11 07:38:15;;;;;;;16.73;8.98;;;-0.80;99.90;;;-2.65;100.00;102170.38;2569928;30;139289;-39
2021/11/11 07:40:43;;;;;;;14.52;7.80;;;-0.80;99.90;;;-2.61;100.00;102163.91;2567915;30;137743;-40
2021/11/11 07:43:11;;;;;;;15.88;8.02;;;-0.70;99.90;;;-2.52;100.00;102161.59;2571920;30;138415;-41
2021/11/11 07:45:42;;;;;;;17.52;9.38;;;-0.60;99.90;;;-2.49;100.00;102145.41;2568327;30;140388;-40
2021/11/11 07:48:10;;;;;;;;;;;-0.60;99.90;;;-2.37;100.00;102155.31;2569007;30;138221;-40
2021/11/11 07:50:43;;;;;;;14.00;7.85;;;-0.50;99.90;;;-2.31;100.00;102156.78;2572205;30;138133;-39
2021/11/11 07:53:11;;;;;;;24.23;10.05;;;-0.50;99.90;;;-2.27;100.00;102158.28;2570014;30;138686;-40
2021/11/11 07:55:42;;;;;;;19.42;10.32;;;-0.40;99.90;;;-2.14;100.00;102162.84;2569693;30;138371;-40
2021/11/11 07:58:10;;;;;;;21.52;10.68;;;-0.30;99.90;;;-1.95;100.00;102162.59;2570398;30;137304;-40
2021/11/11 08:00:40;;;;;;;17.95;9.80;;;-0.20;99.90;;;-1.84;100.00;102164.59;2569639;30;138386;-40
2021/11/11 08:03:08;;;;;;;21.83;10.70;;;0.00;99.90;;;-1.72;100.00;102166.44;2571736;30;138342;-39
2021/11/11 08:05:37;;;;;;;;;;;0.10;99.90;;;-1.58;100.00;102167.41;2570995;30;137635;-39
2021/11/11 08:08:05;;;;;;;19.55;10.68;;;0.20;99.90;;;-1.50;100.00;102162.38;2568967;30;138581;-39
2021/11/11 08:10:34;;;;;;;24.08;12.70;;;0.30;99.90;;;-1.41;100.00;102172.47;2568582;30;137565;-39
2021/11/11 08:13:02;;;;;;;26.73;12.23;;;0.40;99.90;;;-1.30;100.00;102174.47;2568951;30;137703;-39
2021/11/11 08:15:30;;;;;;;28.00;14.32;;;0.50;99.90;;;-1.17;100.00;102171.81;2573318;30;137888;-40
2021/11/11 08:17:59;;;;;;;26.48;13.48;;;0.60;99.90;;;-1.05;100.00;102170.16;2570228;30;136649;-40
2021/11/11 08:20:27;;;;;;;26.48;13.43;;;0.70;99.90;;;-1.00;100.00;102170.69;2569798;30;136908;-39
2021/11/11 08:22:54;;;;;;;23.77;12.43;;;0.80;99.90;;;-0.91;100.00;102171.91;2569206;30;138155;-39
2021/11/11 08:25:22;;;;;;;26.15;12.82;;;0.90;99.90;;;-0.81;100.00;102169.44;2568858;30;138593;-39
2021/11/11 08:27:54;;;;;;;25.70;12.82;;;1.00;99.90;;;-0.75;100.00;102169.91;2569116;30;137737;-39
2021/11/11 08:30:22;;;;;;;25.98;13.45;;;1.00;99.90;;;-0.64;100.00;102174.53;2569214;30;138366;-39
2021/11/11 08:32:51;;;;;;;;;;;1.10;99.90;;;-0.55;100.00;102170.31;2568721;30;138409;-39
2021/11/11 08:35:22;;;;;;;22.40;12.40;;;1.20;99.90;;;-0.45;100.00;102165.19;2568308;30;137309;-39
2021/11/11 08:37:51;;;;;;;30.67;14.93;;;1.30;99.90;;;-0.33;100.00;102168.84;2572590;30;137384;-39
2021/11/11 08:40:19;;;;;;;27.05;15.30;;;1.40;99.90;;;-0.25;100.00;102169.19;2571630;30;138509;-39
2021/11/11 08:42:52;;;;;;;25.83;15.50;;;1.50;99.90;;;-0.16;100.00;102163.16;2570223;30;138334;-40
2021/11/11 08:45:23;;;;;;;29.20;14.95;;;1.60;99.90;;;-0.08;100.00;102162.59;2567338;30;139019;-39
2021/11/11 08:47:54;;;;;;;26.10;14.93;;;1.60;99.90;;;0.00;100.00;102175.47;2566124;30;140096;-39
2021/11/11 08:50:24;;;;;;;31.13;15.63;;;1.70;99.90;;;0.07;100.00;102171.38;2569675;30;137673;-40
2021/11/11 08:52:55;;;;;;;29.80;15.10;;;1.80;99.90;;;0.14;100.00;102177.19;2569393;30;139220;-40
2021/11/11 08:55:30;;;;;;;30.70;16.30;;;1.80;99.90;;;0.27;100.00;102187.88;2569141;30;137525;-39
2021/11/11 08:58:00;;;;;;;40.17;17.63;;;1.90;99.90;;;0.36;100.00;102170.22;2571537;30;139131;-39
2021/11/11 09:00:34;;;;;;;37.17;17.23;;;2.00;99.90;;;0.53;100.00;102185.97;2569215;30;139891;-37
2021/11/11 09:03:04;;;;;;;39.25;17.25;;;2.20;99.90;;;0.62;100.00;102183.56;2569734;30;138193;-39
2021/11/11 09:05:35;;;;;;;35.42;18.08;;;2.20;99.90;;;0.73;100.00;102177.41;2569401;30;137116;-39
2021/11/11 09:08:06;;;;;;;38.90;18.30;;;2.30;99.90;;;0.84;100.00;102172.09;2568731;30;138121;-39
2021/11/11 09:10:37;;;;;;;45.88;19.83;;;2.50;99.90;;;0.97;100.00;102170.19;2571155;30;137738;-39
2021/11/11 09:13:29;;;;;;;44.65;20.65;;;2.60;99.90;;;1.13;100.00;102169.03;2570358;30;139190;-39
2021/11/11 09:15:59;;;;;;;47.20;20.15;;;2.70;99.90;;;1.24;100.00;102165.50;2575411;30;138690;-38
2021/11/11 09:18:26;;;;;;;49.55;20.05;;;2.90;99.90;;;1.38;100.00;102173.34;2567640;30;138359;-38
2021/11/11 09:21:06;;;;;;;51.95;20.88;;;3.00;99.90;;;1.52;100.00;102174.97;2565467;30;137744;-38
2021/11/11 09:23:35;;;;;;;45.55;21.02;;;3.10;99.90;;;1.63;100.00;102168.75;2567513;30;138008;-38
2021/11/11 09:26:05;;;;;;;48.08;22.05;;;3.20;99.90;;;1.76;100.00;102157.03;2567033;30;138282;-38
2021/11/11 09:28:37;;;;;;;47.50;22.15;;;3.30;99.90;;;1.86;100.00;102158.88;2568136;30;141574;-38
2021/11/11 09:31:05;;;;;;;51.30;21.20;;;3.40;99.90;;;1.95;100.00;102159.97;2568078;30;137429;-38
2021/11/11 09:33:33;;;;;;;47.38;20.60;;;3.50;99.90;;;2.06;100.00;102156.41;2568322;30;138364;-38
2021/11/11 09:36:01;;;;;;;52.40;22.50;;;3.60;99.90;;;2.19;100.00;102152.75;2566085;30;137957;-38
2021/11/11 09:38:29;;;;;;;47.50;21.65;;;3.70;99.90;;;2.30;100.00;102145.50;2568297;30;138288;-38
2021/11/11 09:40:57;;;;;;;52.83;22.15;;;3.80;99.90;;;2.40;100.00;102151.00;2565806;30;138115;-38
2021/11/11 09:43:37;;;;;;;51.25;23.38;;;3.90;99.90;;;2.50;100.00;102150.22;2567998;30;139113;-38
2021/11/11 09:46:10;;;;;;;43.45;20.73;;;4.00;99.90;;;2.53;100.00;102152.66;2567469;30;137731;-38
2021/11/11 09:48:39;;;;;;;46.03;21.35;;;4.10;99.90;;;2.59;100.00;102141.38;2568058;30;137713;-38
2021/11/11 09:51:12;;;;;;;43.47;21.70;;;4.10;99.90;;;2.70;100.00;102140.47;2567704;30;137138;-38
2021/11/11 09:59:27;;;;;;;40.55;19.90;;;4.40;99.90;;;3.01;100.00;102141.44;2568968;30;136836;-38
2021/11/11 10:02:00;;;;;;;40.60;20.00;;;4.50;99.90;;;3.10;100.00;102147.03;2568884;30;136906;-38
2021/11/11 10:04:29;;;;;;;41.80;19.50;;;4.60;99.90;;;3.19;100.00;102148.97;2568906;30;138196;-38
2021/11/11 10:07:00;;;;;;;41.30;21.00;;;4.70;99.90;;;3.27;100.00;102145.59;2566669;30;137660;-38
2021/11/11 10:09:29;;;;;;;39.55;20.38;;;4.70;99.90;;;3.35;100.00;102144.94;2567315;30;138464;-38
2021/11/11 10:12:06;;;;;;;44.13;20.48;;;4.80;99.90;;;3.38;100.00;102150.94;2566684;30;140212;-38
2021/11/11 10:14:37;;;;;;;42.30;20.63;;;4.90;99.90;;;3.42;99.52;102144.28;2567585;30;138434;-38
2021/11/11 10:17:09;;;;;;;43.17;19.70;;;4.90;99.90;;;3.54;99.87;102142.34;2569190;30;137450;-38
2021/11/11 10:19:44;;;;;;;40.92;19.80;;;5.00;99.90;;;3.67;99.78;102149.38;2568078;30;138243;-38
2021/11/11 10:22:29;;;;;;;44.33;21.42;;;5.10;99.90;;;3.76;99.66;102142.31;2567930;30;136790;-38
2021/11/11 10:25:05;;;;;;;45.10;21.73;;;5.20;99.90;;;3.83;98.60;102143.47;2566341;30;138524;-38
2021/11/11 10:27:43;;;;;;;43.95;20.20;;;5.30;99.90;;;3.91;98.04;102145.50;2569045;30;138381;-38
2021/11/11 10:30:30;;;;;;;44.13;21.30;;;5.40;99.90;;;4.02;97.96;102145.44;2568561;30;139214;-39
2021/11/11 10:33:12;;;;;;;46.30;20.55;;;5.40;99.90;;;4.13;98.16;102147.16;2569152;30;137825;-38
2021/11/11 10:35:44;;;;;;;54.83;22.38;;;5.50;99.90;;;4.20;96.39;102144.75;2569042;30;138423;-39
2021/11/11 10:38:19;;;;;;;47.63;22.60;;;5.70;99.90;;;4.30;96.43;102141.09;2568978;30;137697;-38
2021/11/11 10:40:52;;;;;;;49.40;22.27;;;5.70;99.90;;;4.35;95.58;102137.97;2568593;30;138479;-38
2021/11/11 10:43:25;;;;;;;50.38;22.65;;;5.80;99.90;;;4.41;95.34;102140.09;2568978;30;138167;-38